Terminal Aerodrome Forecast
Issued by NWS

Home | Current Version | Previous Version | Text Only | Print | Product List | Glossary On
Versions: 1 2 3 4 5 6 7 8 9 10 11 12 13 14 15 16 17 18 19 20 21 22
000
FTUS45 KREV 242300
TAFTVL
TAF
KTVL 242320Z 2500/2524 20012KT 1SM -SN BKN010 OVC020
     FM250400 03010KT P6SM BKN020 BKN040
     FM250800 VRB03KT P6SM SCT020
     FM251500 17005KT P6SM SCT040=

USA.gov is the U.S. government's official web portal to all federal, state and local government web resources and services.